createdAt,value
2023-02-03T00:04:00.311Z,97.69
2023-02-03T00:09:06.430Z,96.85
2023-02-03T00:14:09.769Z,96.99
2023-02-03T00:19:13.178Z,97.36
2023-02-03T00:24:16.344Z,97.36
2023-02-03T00:29:21.940Z,97.36
2023-02-03T00:34:29.184Z,97.64
2023-02-03T00:39:32.559Z,97.50
2023-02-03T00:44:35.554Z,97.78
2023-02-03T00:49:38.977Z,98.36
2023-02-03T00:54:41.897Z,98.05
2023-02-03T00:59:45.319Z,98.03
2023-02-03T01:04:49.249Z,97.86
2023-02-03T01:09:53.492Z,98.39
2023-02-03T01:14:56.901Z,98.58
2023-02-03T01:20:00.942Z,98.44
2023-02-03T01:25:05.265Z,98.46
2023-02-03T01:30:09.257Z,98.65
2023-02-03T01:35:12.853Z,98.87
2023-02-03T01:40:16.058Z,99.02
2023-02-03T01:45:20.354Z,99.02
2023-02-03T01:50:28.630Z,99.10
2023-02-03T01:55:38.820Z,99.42
2023-02-03T02:00:42.683Z,99.61
2023-02-03T02:06:06.243Z,99.47
2023-02-03T02:11:10.035Z,99.94
2023-02-03T02:16:24.784Z,99.97
2023-02-03T02:21:46.487Z,100.00
2023-02-03T02:27:27.913Z,100.00
2023-02-03T02:32:47.952Z,99.99
2023-02-03T02:37:56.575Z,100.00
2023-02-03T02:43:14.286Z,100.00
2023-02-03T02:48:32.516Z,100.00
2023-02-03T02:53:41.419Z,99.70
2023-02-03T02:58:48.820Z,100.00
2023-02-03T03:03:52.393Z,100.00
2023-02-03T03:09:00.341Z,100.00
2023-02-03T03:14:07.291Z,99.87
2023-02-03T03:19:15.711Z,100.00
2023-02-03T03:24:28.028Z,100.00
2023-02-03T03:29:36.111Z,100.00
2023-02-03T03:34:39.936Z,100.00
2023-02-03T03:39:54.430Z,100.00
2023-02-03T03:45:20.369Z,100.00
2023-02-03T03:50:29.543Z,100.00
2023-02-03T03:55:36.409Z,100.00
2023-02-03T04:00:42.488Z,100.00
2023-02-03T04:05:46.407Z,100.00
2023-02-03T04:10:49.326Z,100.00
2023-02-03T04:15:52.322Z,99.67
2023-02-03T04:20:55.286Z,99.83
2023-02-03T04:26:01.591Z,100.00
2023-02-03T04:31:05.003Z,100.00
2023-02-03T04:36:08.582Z,100.00
2023-02-03T04:41:11.981Z,100.00
2023-02-03T04:46:15.770Z,100.00
2023-02-03T04:51:19.418Z,99.82
2023-02-03T04:56:23.028Z,99.80
2023-02-03T05:01:26.241Z,99.64
2023-02-03T05:10:54.475Z,99.76
2023-02-03T05:15:58.259Z,100.00
2023-02-03T05:21:01.752Z,99.74
2023-02-03T05:26:05.737Z,100.00
2023-02-03T05:31:08.867Z,100.00
2023-02-03T05:36:11.948Z,100.00
2023-02-03T05:41:42.974Z,100.00
2023-02-03T05:46:47.282Z,100.00
2023-02-03T05:51:52.342Z,100.00
2023-02-03T05:56:55.803Z,100.00
2023-02-03T06:01:59.368Z,100.00
2023-02-03T06:07:02.544Z,100.00
2023-02-03T06:12:05.917Z,100.00
2023-02-03T06:17:08.855Z,100.00
2023-02-03T06:22:11.941Z,100.00
2023-02-03T06:27:18.166Z,100.00
2023-02-03T06:32:21.694Z,100.00
2023-02-03T06:37:25.124Z,100.00
2023-02-03T06:42:28.166Z,100.00
2023-02-03T06:47:31.651Z,100.00
2023-02-03T06:52:34.672Z,100.00
2023-02-03T06:57:49.026Z,100.00
2023-02-03T07:02:56.719Z,76.43
2023-02-03T07:08:00.157Z,58.29
2023-02-03T07:13:07.658Z,50.71
2023-02-03T07:18:11.867Z,46.05
2023-02-03T07:23:16.309Z,43.13
2023-02-03T07:28:29.297Z,43.45
2023-02-03T07:33:37.507Z,38.91
2023-02-03T07:38:40.531Z,38.60
2023-02-03T07:43:43.575Z,39.38
2023-02-03T07:48:46.695Z,37.44
2023-02-03T07:53:49.800Z,33.97
2023-02-03T07:58:53.869Z,33.06
2023-02-03T08:03:57.082Z,36.18
2023-02-03T08:09:00.471Z,33.78
2023-02-03T08:14:04.486Z,34.26
2023-02-03T08:19:08.686Z,34.20
2023-02-03T08:24:12.208Z,35.69
2023-02-03T08:29:15.723Z,35.27
2023-02-03T08:34:19.339Z,34.37
2023-02-03T08:39:23.616Z,33.15
2023-02-03T08:44:26.626Z,34.60
2023-02-03T08:49:31.534Z,32.95
2023-02-03T08:54:35.315Z,31.96
2023-02-03T08:59:41.097Z,35.04
2023-02-03T09:04:44.860Z,34.73
2023-02-03T09:09:48.730Z,34.81
2023-02-03T09:14:51.915Z,33.73
2023-02-03T09:19:55.673Z,31.85
2023-02-03T09:24:58.814Z,31.77
2023-02-03T09:30:02.822Z,30.43
2023-02-03T09:35:06.127Z,30.34
2023-02-03T09:40:21.095Z,31.00
2023-02-03T09:45:29.894Z,31.05
2023-02-03T09:50:37.627Z,30.60
2023-02-03T09:55:43.669Z,31.98
2023-02-03T10:00:49.347Z,31.00
2023-02-03T10:06:17.092Z,29.89
2023-02-03T10:11:44.503Z,29.71
2023-02-03T10:17:22.526Z,28.18
2023-02-03T10:22:29.886Z,30.07
2023-02-03T10:27:35.597Z,30.30
2023-02-03T10:32:38.936Z,31.11
2023-02-03T10:37:45.950Z,29.92
2023-02-03T10:43:08.220Z,31.91
2023-02-03T10:48:17.471Z,33.46
2023-02-03T10:53:34.069Z,34.20
2023-02-03T10:58:39.223Z,31.64
2023-02-03T11:03:44.624Z,33.09
2023-02-03T11:08:50.878Z,33.16
2023-02-03T11:14:14.042Z,35.70
2023-02-03T11:19:49.031Z,36.90
2023-02-03T11:24:52.355Z,38.77
2023-02-03T11:30:30.420Z,36.97
2023-02-03T11:35:38.202Z,38.05
2023-02-03T11:40:41.874Z,40.16
2023-02-03T11:45:49.216Z,36.75
2023-02-03T11:51:04.533Z,36.90
2023-02-03T11:56:29.023Z,37.71
2023-02-03T12:01:51.027Z,37.61
2023-02-03T12:06:57.125Z,38.58
2023-02-03T12:12:25.894Z,37.60
2023-02-03T12:17:29.403Z,35.82
2023-02-03T12:22:54.329Z,38.62
2023-02-03T12:28:33.362Z,39.11
2023-02-03T12:33:48.003Z,38.47
2023-02-03T12:38:58.685Z,37.62
2023-02-03T12:44:08.837Z,35.86
2023-02-03T12:49:33.459Z,36.38
2023-02-03T12:55:12.126Z,33.38
2023-02-03T13:00:34.240Z,33.58
2023-02-03T13:05:40.422Z,33.51
2023-02-03T13:10:55.878Z,34.82
2023-02-03T13:16:00.857Z,36.73
2023-02-03T13:21:04.272Z,41.34
2023-02-03T13:26:22.866Z,42.55
2023-02-03T13:31:53.228Z,47.75
2023-02-03T13:37:18.954Z,51.13
2023-02-03T13:42:26.984Z,52.94
2023-02-03T13:47:32.894Z,50.54
2023-02-03T13:52:44.832Z,48.47
2023-02-03T13:57:52.330Z,49.98
2023-02-03T14:02:57.001Z,48.38
2023-02-03T14:08:30.049Z,55.97
2023-02-03T14:13:33.035Z,50.11
2023-02-03T14:18:45.642Z,45.90
2023-02-03T14:24:07.097Z,47.07
2023-02-03T14:29:32.816Z,45.90
2023-02-03T14:34:49.691Z,47.22
2023-02-03T14:40:19.686Z,49.22
2023-02-03T14:45:34.405Z,49.71
2023-02-03T14:50:56.279Z,47.29
2023-02-03T14:56:24.255Z,44.92
2023-02-03T15:01:50.303Z,48.61
2023-02-03T15:06:54.201Z,47.91
2023-02-03T15:11:57.871Z,48.72
2023-02-03T15:17:03.920Z,49.70
2023-02-03T15:22:28.631Z,52.59
2023-02-03T15:27:33.181Z,57.97
2023-02-03T15:32:41.810Z,59.91
2023-02-03T15:37:45.092Z,64.26
2023-02-03T15:42:58.361Z,67.25
2023-02-03T15:48:20.896Z,65.85
2023-02-03T15:53:45.163Z,67.86
2023-02-03T15:58:50.820Z,66.98
2023-02-03T16:03:56.994Z,69.06
2023-02-03T16:09:01.054Z,71.28
2023-02-03T16:14:07.824Z,72.62
2023-02-03T16:19:16.295Z,75.03
2023-02-03T16:24:42.843Z,77.94
2023-02-03T16:30:04.142Z,81.78
2023-02-03T16:35:29.109Z,84.10
2023-02-03T16:40:51.171Z,86.35
2023-02-03T16:46:15.886Z,88.53
2023-02-03T16:51:18.989Z,88.81
2023-02-03T16:56:22.120Z,89.73
2023-02-03T17:01:25.347Z,91.38
2023-02-03T17:06:29.019Z,91.70
2023-02-03T17:11:32.862Z,92.87
2023-02-03T17:16:35.951Z,93.67
2023-02-03T17:21:39.600Z,94.13
2023-02-03T17:26:42.613Z,94.68
2023-02-03T17:31:46.606Z,91.78
2023-02-03T17:36:50.288Z,90.81
2023-02-03T17:57:56.474Z,84.85
2023-02-03T18:02:59.860Z,87.29
2023-02-03T18:08:09.188Z,86.87
2023-02-03T18:13:23.436Z,88.36
2023-02-03T18:18:28.355Z,87.91
2023-02-03T18:23:33.213Z,84.79
2023-02-03T18:28:38.421Z,87.32
2023-02-03T18:33:43.335Z,86.88
2023-02-03T18:38:47.356Z,88.94
2023-02-03T18:43:51.619Z,86.48
2023-02-03T18:48:56.536Z,85.52
2023-02-03T18:54:00.573Z,83.11
2023-02-03T18:59:11.487Z,82.83
2023-02-03T19:04:14.534Z,82.17
2023-02-03T19:09:19.590Z,82.33
2023-02-03T19:14:24.882Z,82.90
2023-02-03T19:19:28.615Z,81.13
2023-02-03T19:24:31.734Z,80.81
2023-02-03T19:29:34.954Z,79.21
2023-02-03T19:34:38.342Z,77.60
2023-02-03T19:39:41.439Z,74.80
2023-02-03T19:44:44.517Z,74.79
2023-02-03T19:49:47.597Z,74.37
2023-02-03T19:54:54.050Z,74.29
2023-02-03T19:59:57.321Z,73.86
2023-02-03T20:05:00.829Z,72.54
2023-02-03T20:10:03.986Z,72.53
2023-02-03T20:15:07.803Z,73.30
2023-02-03T20:20:11.409Z,73.87
2023-02-03T20:25:14.597Z,74.33
2023-02-03T20:30:18.653Z,76.21
2023-02-03T20:35:24.179Z,77.58
2023-02-03T20:40:30.144Z,76.29
2023-02-03T20:45:34.892Z,78.08
2023-02-03T20:50:42.474Z,79.91
2023-02-03T20:55:47.340Z,82.11
2023-02-03T21:00:51.847Z,82.45
2023-02-03T21:05:54.947Z,82.66
2023-02-03T21:10:58.374Z,80.26
2023-02-03T21:16:05.094Z,76.70
2023-02-03T21:21:25.126Z,74.95
2023-02-03T21:26:31.272Z,72.79
2023-02-03T21:31:35.832Z,72.08
2023-02-03T21:36:39.274Z,71.83
2023-02-03T21:41:42.836Z,70.10
2023-02-03T21:46:46.542Z,70.08
2023-02-03T21:51:49.919Z,70.03
2023-02-03T21:56:54.613Z,69.84
2023-02-03T22:02:01.034Z,70.88
2023-02-03T22:07:15.768Z,72.31
2023-02-03T22:12:18.756Z,72.99
2023-02-03T22:17:22.349Z,73.58
2023-02-03T22:22:25.286Z,73.04
2023-02-03T22:27:28.247Z,73.51
2023-02-03T22:32:31.209Z,74.25
2023-02-03T22:37:34.540Z,74.30
2023-02-03T22:42:37.578Z,75.74
2023-02-03T22:47:41.165Z,75.95
2023-02-03T22:52:44.494Z,76.48
2023-02-03T22:57:50.082Z,77.06
2023-02-03T23:02:53.655Z,77.34
2023-02-03T23:07:56.916Z,78.63
2023-02-03T23:13:01.290Z,79.08
2023-02-03T23:18:04.454Z,79.21
2023-02-03T23:23:07.694Z,80.16
2023-02-03T23:28:10.723Z,79.97
2023-02-03T23:33:13.861Z,80.52
2023-02-03T23:38:18.251Z,81.33
2023-02-03T23:43:21.743Z,82.49
2023-02-03T23:48:25.079Z,82.40
2023-02-03T23:53:28.489Z,81.59
2023-02-03T23:58:32.650Z,81.87
